METAR Formatted Surface Weather Observation
Issued by NWS

Home | Current Version | Previous Version | Text Only | Print | Product List | Glossary On
Versions: 1 2 3 4 5 6 7 8 9 10
106
SPZS31 NSTU 291623
MTRSPP
SPECI NSTU 291623Z 10009KT 10SM SCT018 BKN040 OVC100 27/27 A2982 RMK
TSE23=



USA.gov is the U.S. government's official web portal to all federal, state and local government web resources and services.